National Weather Service Raw Text Product

Displaying AFOS PIL: TAFDSM Received: 2017-12-07 23:30 UTC


966 
FTUS43 KDMX 072330
TAFDSM
TAF
KDSM 072330Z 0800/0824 25007KT P6SM FEW250
     FM081300 25007KT P6SM VCSH OVC060
     FM081700 28009KT P6SM BKN110
     FM081800 29010KT P6SM SCT250=